Time;durP1;ratioP1;P1;durP2;ratioP2;P2;SDS_P1;SDS_P2;PMS_P1;PMS_P2;Temp;Humidity;BMP_temperature;BMP_pressure;BME280_temperature;BME280_humidity;BME280_pressure;Samples;Min_cycle;Max_cycle;Signal;HPM_P1;HPM_P2
2021/05/28 00:00:44;;;;;;;1.00;0.75;;;;;;;14.85;69.89;100938.50;4921886;28;98478;-68
2021/05/28 00:03:10;;;;;;;1.95;0.90;;;;;;;14.86;70.04;100929.28;4883975;28;114450;-62
2021/05/28 00:05:36;;;;;;;1.88;0.98;;;;;;;14.82;69.69;100930.13;4902148;28;124020;-62
2021/05/28 00:08:03;;;;;;;1.48;1.05;;;;;;;14.83;69.97;100935.28;4921534;28;126756;-68
2021/05/28 00:10:29;;;;;;;1.30;0.90;;;;;;;14.81;69.86;100933.91;4904023;28;102939;-62
2021/05/28 00:12:55;;;;;;;1.33;0.90;;;;;;;14.80;70.09;100933.13;4904155;28;103801;-61
2021/05/28 00:15:21;;;;;;;1.10;0.90;;;;;;;14.78;70.09;100927.19;4921604;28;123020;-62
2021/05/28 00:17:47;;;;;;;1.90;1.13;;;;;;;14.74;70.09;100931.56;4887123;28;101885;-62
2021/05/28 00:20:14;;;;;;;1.48;1.10;;;;;;;14.73;70.30;100947.00;4920127;28;127974;-62
2021/05/28 00:22:41;;;;;;;2.03;0.98;;;;;;;14.75;70.10;100941.31;4921559;28;97851;-62
2021/05/28 00:25:08;;;;;;;1.67;1.00;;;;;;;14.75;70.43;100935.88;4921305;28;103142;-68
2021/05/28 00:27:34;;;;;;;2.33;1.10;;;;;;;14.76;69.97;100945.63;4920929;28;113934;-68
2021/05/28 00:30:00;;;;;;;1.38;1.02;;;;;;;14.76;70.10;100939.41;4921324;28;119048;-68
2021/05/28 00:32:27;;;;;;;2.00;0.95;;;;;;;14.75;69.93;100935.88;4919477;28;127663;-62
2021/05/28 00:34:54;;;;;;;1.20;0.82;;;;;;;14.75;70.00;100929.66;4920578;28;123993;-68
2021/05/28 00:37:20;;;;;;;1.63;0.98;;;;;;;14.72;70.35;100934.53;4921284;28;98592;-61
2021/05/28 00:39:46;;;;;;;1.30;1.05;;;;;;;14.72;70.38;100931.81;4919802;28;129017;-62
2021/05/28 00:42:12;;;;;;;1.45;1.10;;;;;;;14.69;70.30;100935.09;4918995;28;126532;-62
2021/05/28 00:44:39;;;;;;;1.23;1.00;;;;;;;14.71;70.46;100940.25;4920570;28;118960;-68
2021/05/28 00:47:06;;;;;;;1.73;1.08;;;;;;;14.73;70.48;100948.91;4903794;28;98354;-68
2021/05/28 00:49:32;;;;;;;2.33;1.20;;;;;;;14.70;70.21;100946.78;4920715;28;117620;-62
2021/05/28 00:51:58;;;;;;;1.30;0.90;;;;;;;14.70;70.35;100949.50;4916420;28;98110;-62
2021/05/28 00:54:24;;;;;;;2.15;1.10;;;;;;;14.71;70.19;100951.09;4901805;28;123944;-62
2021/05/28 00:56:50;;;;;;;1.58;0.95;;;;;;;14.68;70.30;100948.94;4902293;28;98863;-68
2021/05/28 00:59:17;;;;;;;1.30;1.10;;;;;;;14.67;70.48;100948.16;4888698;28;101421;-69
2021/05/28 01:01:43;;;;;;;1.67;1.08;;;;;;;14.68;70.47;100944.34;4903300;28;98374;-62
2021/05/28 01:04:09;;;;;;;1.40;1.10;;;;;;;14.67;70.21;100950.84;4900657;28;119349;-68
2021/05/28 01:06:35;;;;;;;1.60;1.00;;;;;;;14.65;70.31;100950.31;4901154;28;128141;-68
2021/05/28 01:09:02;;;;;;;2.17;0.90;;;;;;;14.67;70.14;100959.00;4901367;28;121923;-62
2021/05/28 01:11:28;;;;;;;1.77;1.10;;;;;;;14.66;70.70;100959.28;4902649;28;98238;-62
2021/05/28 01:13:54;;;;;;;1.08;0.93;;;;;;;14.63;70.31;100957.94;4901226;28;123351;-62
2021/05/28 01:16:20;;;;;;;1.23;1.05;;;;;;;14.64;70.26;100959.56;4901174;28;108844;-68
2021/05/28 01:18:46;;;;;;;2.05;1.30;;;;;;;14.63;70.43;100955.22;4901444;28;128203;-68
2021/05/28 01:21:12;;;;;;;1.38;1.10;;;;;;;14.62;70.28;100963.63;4902297;28;98115;-68
2021/05/28 01:23:39;;;;;;;1.50;1.05;;;;;;;14.61;70.48;100962.81;4899000;28;119563;-68
2021/05/28 01:26:05;;;;;;;1.92;1.20;;;;;;;14.59;70.58;100961.50;4882863;28;127920;-62
2021/05/28 01:28:31;;;;;;;1.65;1.08;;;;;;;14.59;70.60;100958.78;4882852;28;115236;-61
2021/05/28 01:30:59;;;;;;;2.15;1.17;;;;;;;14.57;70.58;100967.19;4901172;28;107724;-68
2021/05/28 01:33:26;;;;;;;1.83;1.10;;;;;;;14.56;70.49;100962.88;4917818;28;97901;-62
2021/05/28 01:35:54;;;;;;;1.77;1.20;;;;;;;14.54;70.50;100961.53;4903176;28;98912;-68
2021/05/28 01:38:21;;;;;;;1.92;1.27;;;;;;;14.53;70.88;100968.03;4920063;28;99461;-62
2021/05/28 01:40:47;;;;;;;1.75;1.23;;;;;;;14.51;70.90;100964.81;4920179;28;120384;-62
2021/05/28 01:43:13;;;;;;;1.48;1.20;;;;;;;14.48;70.78;100971.56;4905754;28;109075;-68
2021/05/28 01:45:40;;;;;;;1.52;1.10;;;;;;;14.46;70.63;100963.72;4888200;28;98516;-68
2021/05/28 01:48:06;;;;;;;1.60;1.05;;;;;;;14.44;70.95;100982.19;4882511;28;123984;-61
2021/05/28 01:50:44;;;;;;;1.50;1.02;;;;;;;14.44;71.06;100971.31;4900397;28;110801;-68
2021/05/28 01:53:17;;;;;;;1.80;1.27;;;;;;;14.43;71.13;100977.84;4885758;28;97887;-68
2021/05/28 01:55:43;;;;;;;1.90;1.27;;;;;;;14.42;71.21;100978.94;4882484;28;98417;-61
2021/05/28 01:58:10;;;;;;;1.30;1.05;;;;;;;14.40;70.87;100974.88;4901309;28;98132;-61
2021/05/28 02:00:37;;;;;;;2.03;1.20;;;;;;;14.39;70.96;100973.28;4900852;28;98361;-68
2021/05/28 02:03:03;;;;;;;2.08;1.20;;;;;;;14.39;71.13;100971.38;4876782;28;101024;-68
2021/05/28 02:05:30;;;;;;;2.42;1.30;;;;;;;14.40;71.26;100974.88;4900784;28;98419;-68
2021/05/28 02:07:56;;;;;;;1.50;1.40;;;;;;;14.39;71.40;100981.41;4882729;28;103496;-62
2021/05/28 02:10:22;;;;;;;2.30;1.42;;;;;;;14.38;70.99;100980.59;4883472;28;98214;-62
2021/05/28 02:12:48;;;;;;;1.67;1.17;;;;;;;14.38;71.21;100985.19;4867111;28;98336;-61
2021/05/28 02:15:15;;;;;;;1.63;1.20;;;;;;;14.39;71.06;100989.53;4901343;28;98991;-68
2021/05/28 02:17:41;;;;;;;1.92;1.30;;;;;;;14.36;71.06;100973.81;4899767;28;128116;-61
2021/05/28 02:20:08;;;;;;;2.72;1.40;;;;;;;14.37;71.25;100980.84;4866273;28;119927;-61
2021/05/28 02:22:34;;;;;;;2.33;1.20;;;;;;;14.37;71.04;100978.94;4893671;28;109602;-61
2021/05/28 02:25:00;;;;;;;1.58;1.15;;;;;;;14.36;71.34;100982.75;4919462;28;125551;-61
2021/05/28 02:27:26;;;;;;;2.10;1.30;;;;;;;14.36;71.24;100977.34;4911634;28;99180;-61
2021/05/28 02:29:52;;;;;;;1.92;1.40;;;;;;;14.35;71.42;100983.06;4904385;28;128788;-61
2021/05/28 02:32:19;;;;;;;1.92;1.25;;;;;;;14.34;71.10;100981.41;4918272;28;123951;-62
2021/05/28 02:34:45;;;;;;;1.40;1.17;;;;;;;14.32;71.11;100984.41;4919431;28;98461;-68
2021/05/28 02:37:11;;;;;;;2.05;1.27;;;;;;;14.32;71.37;100981.72;4917954;28;129007;-68
2021/05/28 02:39:37;;;;;;;2.03;1.25;;;;;;;14.27;71.28;100987.16;4917758;28;128207;-67
2021/05/28 02:42:03;;;;;;;1.70;1.30;;;;;;;14.29;71.22;100982.25;4919259;28;122310;-62
2021/05/28 02:44:29;;;;;;;1.60;1.10;;;;;;;14.29;71.21;100984.16;4918265;28;115769;-68
2021/05/28 02:46:55;;;;;;;1.70;1.23;;;;;;;14.29;71.28;100987.69;4917955;28;99001;-68
2021/05/28 02:49:21;;;;;;;1.60;1.48;;;;;;;14.32;71.35;100986.31;4915640;28;126227;-61
2021/05/28 02:51:47;;;;;;;2.70;1.33;;;;;;;14.29;71.33;100993.09;4864953;28;123550;-61
2021/05/28 02:54:13;;;;;;;2.45;1.35;;;;;;;14.30;71.44;100988.50;4881358;28;128160;-69
2021/05/28 02:56:39;;;;;;;2.55;1.15;;;;;;;14.28;71.58;100988.78;4899493;28;128504;-68
2021/05/28 02:59:05;;;;;;;1.85;1.48;;;;;;;14.29;71.66;100990.38;4899543;28;126866;-61
2021/05/28 03:01:31;;;;;;;2.30;1.40;;;;;;;14.29;71.54;100993.09;4881278;28;122529;-68
2021/05/28 03:03:57;;;;;;;1.95;1.20;;;;;;;14.30;71.29;100996.63;4900330;28;101489;-68
2021/05/28 03:06:23;;;;;;;1.75;1.33;;;;;;;14.31;71.34;100999.06;4899259;28;122882;-68
2021/05/28 03:08:49;;;;;;;2.15;1.50;;;;;;;14.31;71.32;100999.06;4919026;28;128112;-68
2021/05/28 03:11:15;;;;;;;1.85;1.40;;;;;;;14.30;71.48;100994.72;4919568;28;122263;-68
2021/05/28 03:13:41;;;;;;;1.95;1.42;;;;;;;14.31;71.26;100998.25;4918384;28;127840;-68
2021/05/28 03:16:07;;;;;;;2.20;1.45;;;;;;;14.30;71.30;100999.34;4917439;28;122968;-61
2021/05/28 03:18:47;;;;;;;1.80;1.40;;;;;;;14.30;71.61;100997.44;4903889;28;127780;-61
2021/05/28 03:23:53;;;;;;;2.30;1.58;;;;;;;14.32;71.67;101003.41;4899755;28;98820;-61
2021/05/28 03:26:23;;;;;;;2.78;1.60;;;;;;;14.30;71.71;101013.69;4903763;28;98807;-62
2021/05/28 03:28:49;;;;;;;2.35;1.50;;;;;;;14.32;71.65;101014.25;4916963;28;98034;-61
2021/05/28 03:31:15;;;;;;;2.83;1.75;;;;;;;14.31;71.56;101003.69;4869200;28;98103;-62
2021/05/28 03:33:41;;;;;;;2.20;1.50;;;;;;;14.32;71.51;101016.16;4899975;28;123366;-61
2021/05/28 03:36:07;;;;;;;2.95;1.85;;;;;;;14.32;71.39;101011.53;4918977;28;114920;-68
2021/05/28 03:38:34;;;;;;;1.95;1.55;;;;;;;14.34;71.49;101011.25;4918905;28;97954;-68
2021/05/28 03:41:00;;;;;;;2.00;1.60;;;;;;;14.34;71.25;101017.47;4918878;28;98148;-68
2021/05/28 03:43:26;;;;;;;2.72;1.80;;;;;;;14.33;71.94;101015.06;4899234;28;127107;-61
2021/05/28 03:45:52;;;;;;;3.03;1.48;;;;;;;14.34;71.61;101019.38;4911589;28;121734;-68
2021/05/28 03:48:18;;;;;;;2.55;1.70;;;;;;;14.34;72.01;101019.38;4882118;28;100683;-68
2021/05/28 03:50:44;;;;;;;2.30;1.55;;;;;;;14.33;71.89;101024.00;4899882;28;98020;-68
2021/05/28 03:53:10;;;;;;;2.97;1.83;;;;;;;14.33;72.21;101026.72;4914025;28;107735;-61
2021/05/28 03:55:36;;;;;;;2.13;1.73;;;;;;;14.32;71.73;101022.38;4908290;28;127620;-61
2021/05/28 03:58:03;;;;;;;2.17;1.80;;;;;;;14.33;72.16;101023.19;4901946;28;98556;-68
2021/05/28 04:00:29;;;;;;;1.98;1.55;;;;;;;14.37;71.86;101026.97;4885202;28;98215;-68
2021/05/28 04:02:55;;;;;;;2.28;1.75;;;;;;;14.35;71.92;101029.97;4885342;28;107400;-61
2021/05/28 04:05:21;;;;;;;2.75;1.70;;;;;;;14.35;71.71;101034.59;4901926;28;128195;-61
2021/05/28 04:07:47;;;;;;;2.75;2.05;;;;;;;14.36;71.86;101036.19;4901838;28;122609;-61
2021/05/28 04:10:14;;;;;;;2.10;1.70;;;;;;;14.35;72.07;101035.38;4903332;28;97879;-68
2021/05/28 04:12:40;;;;;;;2.63;1.63;;;;;;;14.37;71.84;101033.19;4906341;28;98417;-68
2021/05/28 04:15:07;;;;;;;2.97;1.60;;;;;;;14.39;72.25;101038.34;4921350;28;116756;-62
2021/05/28 04:17:33;;;;;;;2.28;1.73;;;;;;;14.39;72.05;101041.06;4920719;28;98860;-61
2021/05/28 04:19:59;;;;;;;2.50;1.75;;;;;;;14.39;71.94;101044.59;4921748;28;122587;-60
2021/05/28 04:22:26;;;;;;;2.38;1.65;;;;;;;14.41;72.01;101042.41;4921819;28;99607;-68
2021/05/28 04:24:52;;;;;;;2.38;1.90;;;;;;;14.47;71.86;101037.78;4921093;28;128846;-61
2021/05/28 04:27:18;;;;;;;2.30;1.95;;;;;;;14.51;71.81;101049.72;4919847;28;116344;-64
2021/05/28 04:29:44;;;;;;;2.30;2.08;;;;;;;14.52;71.41;101042.38;4903763;28;98352;-68
2021/05/28 04:32:10;;;;;;;4.00;2.20;;;;;;;14.52;71.79;101047.81;4918480;28;129031;-68
2021/05/28 04:34:37;;;;;;;2.97;2.00;;;;;;;14.55;71.86;101041.84;4921055;28;128049;-68
2021/05/28 04:37:03;;;;;;;2.33;2.13;;;;;;;14.56;71.74;101046.16;4916876;28;98522;-61
2021/05/28 04:39:29;;;;;;;2.17;1.90;;;;;;;14.58;71.63;101049.38;4899913;28;97991;-61
2021/05/28 04:41:56;;;;;;;2.97;2.13;;;;;;;14.66;71.53;101048.81;4915178;28;128192;-61
2021/05/28 04:44:25;;;;;;;2.17;1.70;;;;;;;14.71;71.36;101052.31;4898221;28;128651;-61
2021/05/28 04:46:52;;;;;;;2.65;2.03;;;;;;;14.80;71.50;101051.72;4911046;28;98313;-68
2021/05/28 04:49:18;;;;;;;2.40;2.20;;;;;;;14.87;71.16;101044.88;4899969;28;97861;-67
2021/05/28 04:51:44;;;;;;;3.20;2.28;;;;;;;14.93;70.96;101053.78;4912860;28;127131;-61
2021/05/28 04:54:10;;;;;;;1.98;1.77;;;;;;;15.04;71.07;101059.97;4899545;28;127570;-62
2021/05/28 04:56:36;;;;;;;2.28;2.05;;;;;;;15.07;70.57;101065.63;4915299;28;119752;-62
2021/05/28 04:59:02;;;;;;;2.50;1.75;;;;;;;15.09;70.74;101070.78;4912580;28;116465;-61
2021/05/28 05:01:28;;;;;;;2.72;1.92;;;;;;;15.12;70.71;101067.50;4898042;28;118772;-68
2021/05/28 05:03:54;;;;;;;2.67;1.90;;;;;;;15.14;70.78;101077.00;4895509;28;125657;-68
2021/05/28 05:06:20;;;;;;;2.55;1.85;;;;;;;15.15;71.13;101077.81;4908031;28;127942;-61
2021/05/28 05:08:46;;;;;;;3.42;1.90;;;;;;;15.16;71.04;101074.78;4898582;28;110095;-68
2021/05/28 05:11:12;;;;;;;3.85;2.10;;;;;;;15.24;71.00;101081.53;4891471;28;127984;-68
2021/05/28 05:13:38;;;;;;;2.08;1.85;;;;;;;15.27;70.93;101088.31;4916794;28;128270;-61
2021/05/28 05:16:04;;;;;;;2.20;1.80;;;;;;;15.29;70.78;101084.22;4916143;28;109367;-68
2021/05/28 05:18:30;;;;;;;2.42;1.75;;;;;;;15.25;70.86;101094.03;4899044;28;98095;-61
2021/05/28 05:20:56;;;;;;;2.25;1.90;;;;;;;15.23;71.19;101083.44;4915891;28;127135;-62
2021/05/28 05:23:22;;;;;;;2.53;1.58;;;;;;;15.27;70.90;101099.16;4912142;28;127830;-61
2021/05/28 05:25:49;;;;;;;2.20;1.58;;;;;;;15.33;70.75;101098.84;4883947;28;97996;-68
2021/05/28 05:28:15;;;;;;;2.85;1.88;;;;;;;15.33;70.79;101100.75;4898307;28;114305;-61
2021/05/28 05:30:41;;;;;;;1.83;1.60;;;;;;;15.37;70.65;101105.34;4916275;28;127531;-68
2021/05/28 05:33:07;;;;;;;2.08;1.42;;;;;;;15.42;71.07;101101.75;4908108;28;128255;-61
2021/05/28 05:35:34;;;;;;;1.92;1.63;;;;;;;15.47;70.48;101109.88;4911475;28;98063;-62
2021/05/28 05:38:00;;;;;;;2.50;1.52;;;;;;;15.54;70.33;101106.81;4918439;28;97908;-61
2021/05/28 05:40:27;;;;;;;1.55;1.42;;;;;;;15.61;70.15;101110.84;4916858;28;98089;-61
2021/05/28 05:42:53;;;;;;;1.70;1.50;;;;;;;15.68;70.31;101115.97;4910261;28;128301;-61
2021/05/28 05:45:19;;;;;;;2.30;1.30;;;;;;;15.68;70.31;101119.50;4904091;28;120636;-61
2021/05/28 05:47:47;;;;;;;1.70;1.50;;;;;;;15.74;70.02;101114.81;4916868;28;123907;-61
2021/05/28 05:50:15;;;;;;;2.25;1.33;;;;;;;15.73;69.78;101115.13;4883316;28;101020;-61
2021/05/28 05:52:41;;;;;;;2.70;1.25;;;;;;;15.74;69.74;101114.81;4882941;28;98585;-67
2021/05/28 05:55:08;;;;;;;3.10;1.50;;;;;;;15.69;70.58;101123.03;4882833;28;102900;-62
2021/05/28 05:57:34;;;;;;;1.40;1.20;;;;;;;15.68;70.31;101115.97;4916933;28;98189;-68
2021/05/28 06:00:00;;;;;;;1.67;1.10;;;;;;;15.75;69.99;101123.78;4916660;28;98179;-67
2021/05/28 06:02:27;;;;;;;1.90;1.10;;;;;;;15.78;69.89;101115.88;4915071;28;127057;-67
2021/05/28 06:04:53;;;;;;;2.22;1.40;;;;;;;15.80;69.64;101124.56;4916566;28;98584;-61
2021/05/28 06:07:19;;;;;;;1.42;1.17;;;;;;;15.82;69.95;101132.41;4911697;28;97870;-67
2021/05/28 06:09:45;;;;;;;1.55;1.20;;;;;;;15.84;69.83;101128.31;4916178;28;99080;-67
2021/05/28 06:12:12;;;;;;;2.30;1.10;;;;;;;15.92;69.47;101130.44;4913036;28;114442;-61
2021/05/28 06:14:38;;;;;;;1.90;1.10;;;;;;;15.95;69.54;101143.44;4916814;28;98099;-61
2021/05/28 06:17:04;;;;;;;1.70;1.05;;;;;;;16.03;69.25;101131.09;4909121;28;123272;-61
2021/05/28 06:19:30;;;;;;;2.22;1.02;;;;;;;16.08;69.27;101135.72;4914966;28;128779;-67
2021/05/28 06:21:56;;;;;;;1.40;1.08;;;;;;;16.18;68.77;101130.94;4915645;28;115987;-67
2021/05/28 06:24:22;;;;;;;1.30;0.90;;;;;;;16.32;68.11;101133.81;4916703;28;98221;-61
2021/05/28 06:26:50;;;;;;;1.50;1.10;;;;;;;16.47;68.03;101132.81;4888393;28;121705;-67
2021/05/28 06:29:16;;;;;;;2.08;0.90;;;;;;;16.57;67.80;101121.78;4897052;28;98680;-61
2021/05/28 06:31:42;;;;;;;0.98;0.75;;;;;;;16.62;68.17;101129.91;4897822;28;98403;-68
2021/05/28 06:34:08;;;;;;;1.67;0.80;;;;;;;16.78;67.82;101125.13;4907638;28;129303;-67
2021/05/28 06:36:34;;;;;;;1.58;0.73;;;;;;;16.85;67.55;101130.16;4913412;28;103534;-61
2021/05/28 06:39:00;;;;;;;1.65;0.80;;;;;;;16.89;67.52;101132.00;4913645;28;129333;-67
2021/05/28 06:41:27;;;;;;;1.85;0.85;;;;;;;17.00;67.41;101132.69;4912572;28;98343;-67
2021/05/28 06:43:53;;;;;;;1.45;0.70;;;;;;;17.02;67.81;101141.38;4879058;28;100458;-61
2021/05/28 06:46:19;;;;;;;1.42;0.80;;;;;;;17.01;67.31;101141.66;4894146;28;98063;-61
2021/05/28 06:48:45;;;;;;;1.63;0.80;;;;;;;17.04;67.71;101146.53;4897007;28;127582;-61
2021/05/28 06:51:11;;;;;;;1.30;0.90;;;;;;;16.98;67.62;101148.53;4916264;28;108045;-67
2021/05/28 06:53:37;;;;;;;1.63;0.90;;;;;;;17.10;67.51;101151.63;4911108;28;127463;-67
2021/05/28 06:56:04;;;;;;;0.93;0.50;;;;;;;17.40;66.97;101144.06;4897063;28;98101;-61
2021/05/28 06:58:30;;;;;;;1.13;0.70;;;;;;;17.57;65.87;101147.09;4893826;28;98616;-67
2021/05/28 07:00:57;;;;;;;1.50;0.70;;;;;;;17.83;65.38;101150.19;4895281;28;121659;-61
2021/05/28 07:03:23;;;;;;;1.33;0.57;;;;;;;18.08;64.87;101148.16;4881616;28;98640;-67
2021/05/28 07:05:49;;;;;;;1.25;0.60;;;;;;;18.24;63.74;101154.13;4914646;28;123212;-61
2021/05/28 07:08:16;;;;;;;1.98;0.55;;;;;;;18.48;62.03;101151.19;4881140;28;128510;-67
2021/05/28 07:10:42;;;;;;;1.10;0.50;;;;;;;18.73;61.15;101155.34;4915569;28;102145;-67
2021/05/28 07:13:08;;;;;;;2.55;0.47;;;;;;;18.93;61.01;101152.16;4915424;28;127551;-68
2021/05/28 07:15:34;;;;;;;0.80;0.40;;;;;;;18.96;61.46;101156.22;4916565;28;98061;-61
2021/05/28 07:18:00;;;;;;;0.90;0.45;;;;;;;19.05;62.09;101159.81;4881725;28;98518;-67
2021/05/28 07:20:26;;;;;;;1.10;0.50;;;;;;;19.24;62.79;101163.22;4897233;28;111199;-67
2021/05/28 07:22:52;;;;;;;1.05;0.45;;;;;;;19.45;63.18;101158.06;4914804;28;127468;-61
2021/05/28 07:25:18;;;;;;;1.10;0.40;;;;;;;19.52;62.69;101163.09;4897445;28;123021;-67
2021/05/28 07:27:45;;;;;;;1.35;0.50;;;;;;;19.55;63.84;101167.97;4897171;28;99313;-67
2021/05/28 07:30:12;;;;;;;1.67;0.60;;;;;;;19.50;62.85;101165.34;4900423;28;98069;-61
2021/05/28 07:32:38;;;;;;;1.08;0.40;;;;;;;19.42;63.74;101179.78;4918944;28;98930;-61
2021/05/28 07:35:05;;;;;;;1.17;0.40;;;;;;;19.26;63.78;101182.06;4891527;28;121391;-61
2021/05/28 07:37:31;;;;;;;1.35;0.40;;;;;;;19.06;62.12;101184.13;4919126;28;99269;-61
2021/05/28 07:39:57;;;;;;;1.33;0.40;;;;;;;18.73;63.23;101186.19;4915134;28;114378;-67
2021/05/28 07:42:23;;;;;;;1.25;0.50;;;;;;;18.58;62.87;101173.63;4913247;28;127383;-61
2021/05/28 07:44:51;;;;;;;1.40;0.52;;;;;;;18.39;62.88;101181.94;4919169;28;97798;-68
2021/05/28 07:47:17;;;;;;;1.08;0.50;;;;;;;18.21;63.93;101187.47;4919349;28;98334;-61
2021/05/28 07:49:43;;;;;;;1.73;0.63;;;;;;;18.15;64.99;101184.00;4917293;28;127443;-67
2021/05/28 07:52:09;;;;;;;1.30;0.70;;;;;;;18.05;65.75;101187.72;4916507;28;126189;-62
2021/05/28 07:54:35;;;;;;;0.90;0.50;;;;;;;17.92;66.20;101191.25;4900788;28;98378;-61
2021/05/28 07:57:03;;;;;;;0.95;0.55;;;;;;;17.84;66.16;101191.91;4900658;28;98395;-61
2021/05/28 07:59:29;;;;;;;1.05;0.50;;;;;;;17.74;66.99;101190.13;4918862;28;99074;-61
2021/05/28 08:01:55;;;;;;;1.27;0.60;;;;;;;17.64;67.35;101190.28;4917844;28;127491;-67
2021/05/28 08:04:21;;;;;;;1.58;0.50;;;;;;;17.71;67.14;101198.91;4918512;28;111134;-61
2021/05/28 08:06:48;;;;;;;1.10;0.40;;;;;;;17.95;66.59;101189.81;4918453;28;97917;-67
2021/05/28 08:09:15;;;;;;;1.20;0.40;;;;;;;18.64;63.77;101186.06;4918463;28;99044;-67
2021/05/28 08:11:44;;;;;;;1.38;0.60;;;;;;;19.50;61.64;101179.03;4917663;28;127295;-67
2021/05/28 08:14:10;;;;;;;1.05;0.40;;;;;;;20.07;61.65;101173.78;4917014;28;123047;-67
2021/05/28 08:16:36;;;;;;;1.92;0.40;;;;;;;20.94;60.02;101182.31;4914775;28;127415;-61
2021/05/28 08:19:03;;;;;;;2.00;0.30;;;;;;;21.94;57.79;101175.88;4918306;28;98375;-62
2021/05/28 08:21:29;;;;;;;0.60;0.20;;;;;;;22.62;56.60;101173.19;4915752;28;119039;-68
2021/05/28 08:23:55;;;;;;;0.70;0.20;;;;;;;23.96;53.79;101178.59;4918208;28;101379;-62
2021/05/28 08:26:21;;;;;;;0.77;0.28;;;;;;;24.29;53.51;101178.56;4917125;28;129146;-68
2021/05/28 08:28:47;;;;;;;0.68;0.20;;;;;;;25.60;50.86;101182.97;4917516;28;126863;-68
2021/05/28 08:31:13;;;;;;;0.65;0.20;;;;;;;24.79;53.74;101185.69;4917293;28;112736;-68
2021/05/28 08:33:39;;;;;;;0.88;0.20;;;;;;;24.28;55.42;101192.66;4918533;28;100195;-68
2021/05/28 08:36:06;;;;;;;0.88;0.20;;;;;;;25.11;53.27;101180.38;4917166;28;98039;-62
2021/05/28 08:38:33;;;;;;;0.70;0.20;;;;;;;24.48;55.15;101184.34;4918312;28;98767;-61
2021/05/28 08:40:59;;;;;;;0.50;0.10;;;;;;;26.22;50.65;101177.94;4918417;28;98246;-62
2021/05/28 08:43:25;;;;;;;0.68;0.20;;;;;;;24.90;54.16;101186.81;4913436;28;97937;-67
2021/05/28 08:45:51;;;;;;;0.80;0.20;;;;;;;23.79;55.98;101185.13;4899573;28;115120;-62
2021/05/28 08:48:19;;;;;;;0.63;0.20;;;;;;;22.72;57.68;101184.63;4918044;28;97832;-67
2021/05/28 08:50:48;;;;;;;0.70;0.20;;;;;;;21.89;59.42;101184.25;4896950;28;98644;-67
2021/05/28 08:53:14;;;;;;;0.80;0.20;;;;;;;21.40;60.84;101184.47;4914835;28;98255;-67
2021/05/28 08:55:42;;;;;;;1.35;0.20;;;;;;;21.04;61.68;101184.75;4916061;28;118859;-67
2021/05/28 08:58:10;;;;;;;0.85;0.20;;;;;;;21.00;61.93;101190.06;4917756;28;98491;-67
2021/05/28 09:00:37;;;;;;;1.38;0.30;;;;;;;22.38;58.21;101173.78;4899897;28;98806;-61
2021/05/28 09:03:29;;;;;;;0.95;0.17;;;;;;;23.97;54.17;101171.94;4914303;28;97937;-61
2021/05/28 09:05:56;;;;;;;;;;;;;;;24.27;53.74;101180.03;4895979;28;98684;-68
2021/05/28 09:08:32;;;;;;;1.45;0.20;;;;;;;23.49;55.65;101179.69;4898494;28;98662;-68
2021/05/28 09:11:18;;;;;;;1.25;0.20;;;;;;;22.85;58.08;101182.75;4917882;28;98391;-62
2021/05/28 09:13:44;;;;;;;0.88;0.20;;;;;;;22.18;59.31;101180.81;4916484;28;97962;-67
2021/05/28 09:16:12;;;;;;;1.85;0.15;;;;;;;21.50;60.58;101170.44;4914745;28;98519;-67
2021/05/28 09:18:42;;;;;;;0.98;0.20;;;;;;;21.03;61.36;101180.41;4899713;28;98854;-61
2021/05/28 09:21:08;;;;;;;1.27;0.20;;;;;;;20.52;62.28;101187.38;4917312;28;97840;-67
2021/05/28 09:23:34;;;;;;;0.85;0.20;;;;;;;20.13;63.11;101180.75;4918430;28;97803;-61
2021/05/28 09:26:04;;;;;;;0.88;0.20;;;;;;;19.85;63.46;101188.31;4914952;28;116378;-61
2021/05/28 09:28:43;;;;;;;0.85;0.30;;;;;;;19.70;63.65;101191.44;4899371;28;99072;-61
2021/05/28 09:31:18;;;;;;;0.40;0.20;;;;;;;19.66;63.20;101195.91;4914041;28;99151;-61
2021/05/28 09:33:46;;;;;;;0.70;0.20;;;;;;;25.37;48.99;101169.72;4898334;28;97975;-68
2021/05/28 09:36:26;;;;;;;1.13;0.20;;;;;;;27.70;44.51;101178.03;4913973;28;98296;-62
2021/05/28 09:39:08;;;;;;;0.50;0.20;;;;;;;30.33;38.80;101185.66;4899110;28;99020;-69
2021/05/28 09:41:49;;;;;;;0.68;0.20;;;;;;;33.01;34.99;101188.41;4903709;28;98413;-69
2021/05/28 09:44:24;;;;;;;0.30;0.10;;;;;;;30.68;39.67;101187.13;4915417;28;97847;-62
2021/05/28 09:47:17;;;;;;;0.68;0.15;;;;;;;28.93;44.05;101186.06;4911253;28;98573;-69
2021/05/28 09:49:48;;;;;;;0.50;0.10;;;;;;;27.84;46.58;101193.00;4909671;28;99157;-68
2021/05/28 09:52:25;;;;;;;0.80;0.10;;;;;;;27.04;48.29;101183.44;4912684;28;98133;-61
2021/05/28 09:55:08;;;;;;;0.30;0.10;;;;;;;26.39;49.40;101185.84;4905153;28;97926;-61
2021/05/28 09:57:52;;;;;;;0.68;0.10;;;;;;;26.20;50.01;101181.03;4917022;28;98668;-61
2021/05/28 10:00:21;;;;;;;0.40;0.10;;;;;;;28.01;45.59;101183.38;4898048;28;98424;-61
2021/05/28 10:02:48;;;;;;;1.85;0.20;;;;;;;32.82;35.94;101184.06;4913443;28;98113;-69
2021/05/28 10:05:24;;;;;;;0.22;0.10;;;;;;;33.54;34.96;101193.00;4918879;28;98815;-69
2021/05/28 10:07:50;;;;;;;0.82;0.10;;;;;;;30.76;41.11;101191.56;4917167;28;98222;-69
2021/05/28 10:10:17;;;;;;;0.50;0.10;;;;;;;29.10;44.18;101204.94;4897593;28;98673;-61
2021/05/28 10:12:48;;;;;;;0.85;0.10;;;;;;;27.76;47.23;101201.53;4916345;28;108526;-68
2021/05/28 10:15:15;;;;;;;0.23;0.10;;;;;;;26.43;49.28;101203.31;4883958;28;98135;-68
2021/05/28 10:17:41;;;;;;;0.40;0.10;;;;;;;25.36;51.48;101203.19;4915481;28;98727;-61
2021/05/28 10:20:08;;;;;;;0.50;0.10;;;;;;;24.47;53.41;101201.19;4899349;28;98392;-61
2021/05/28 10:22:34;;;;;;;0.45;0.10;;;;;;;23.85;54.51;101204.97;4917394;28;99815;-61
2021/05/28 10:25:06;;;;;;;0.30;0.10;;;;;;;23.58;55.19;101198.06;4909314;28;98149;-61
2021/05/28 10:27:32;;;;;;;0.20;0.10;;;;;;;23.35;55.55;101200.38;4893834;28;98205;-61
2021/05/28 10:29:58;;;;;;;0.63;0.10;;;;;;;23.17;55.89;101197.75;4916749;28;98808;-67
2021/05/28 10:32:25;;;;;;;0.50;0.10;;;;;;;23.26;55.16;101193.00;4915126;28;128525;-62
2021/05/28 10:35:11;;;;;;;0.38;0.10;;;;;;;23.82;53.86;101195.44;4898909;28;101082;-68
2021/05/28 10:37:42;;;;;;;0.25;0.10;;;;;;;24.88;51.41;101191.88;4911355;28;97810;-68
2021/05/28 10:40:27;;;;;;;0.20;0.10;;;;;;;26.09;49.01;101191.78;4898098;28;99175;-61
2021/05/28 10:43:06;;;;;;;0.35;0.10;;;;;;;26.86;47.41;101191.31;4898542;28;98210;-61
2021/05/28 10:45:58;;;;;;;0.50;0.10;;;;;;;27.65;46.40;101198.53;4916474;28;98096;-62
2021/05/28 10:48:39;;;;;;;0.20;0.10;;;;;;;27.70;46.10;101195.44;4909391;28;98435;-68
2021/05/28 10:51:12;;;;;;;0.30;0.10;;;;;;;27.30;47.55;101206.91;4909280;28;98056;-61
2021/05/28 10:53:40;;;;;;;0.63;0.10;;;;;;;26.43;49.30;101212.41;4912492;28;98023;-68
2021/05/28 10:56:11;;;;;;;0.60;0.08;;;;;;;25.68;50.34;101212.38;4908570;28;112548;-68
2021/05/28 10:58:59;;;;;;;0.20;0.00;;;;;;;25.14;50.10;101213.56;4878732;28;98721;-68
2021/05/28 11:01:56;;;;;;;0.65;0.10;;;;;;;24.93;49.54;101212.91;4893668;28;98257;-62
2021/05/28 11:04:44;;;;;;;0.40;0.10;;;;;;;25.12;48.98;101212.34;4904776;28;98556;-61
2021/05/28 11:07:09;;;;;;;0.77;0.10;;;;;;;25.52;48.23;101212.31;4902052;28;97911;-68
2021/05/28 11:09:49;;;;;;;0.22;0.10;;;;;;;25.88;47.71;101216.09;4908943;28;98114;-62
2021/05/28 11:12:25;;;;;;;1.08;0.10;;;;;;;26.00;48.27;101212.47;4884993;28;98350;-68
2021/05/28 11:14:57;;;;;;;1.10;0.13;;;;;;;27.62;44.99;101207.56;4894562;28;98197;-68
2021/05/28 11:17:23;;;;;;;0.38;0.10;;;;;;;27.53;45.89;101210.56;4916655;28;98096;-62
2021/05/28 11:19:52;;;;;;;0.70;0.10;;;;;;;27.82;45.60;101214.69;4881764;28;98565;-68
2021/05/28 11:22:39;;;;;;;0.20;0.10;;;;;;;27.59;46.00;101206.34;4914110;28;98432;-68
2021/05/28 11:25:21;;;;;;;0.20;0.10;;;;;;;27.33;47.21;101209.75;4907821;28;98027;-69
2021/05/28 11:28:09;;;;;;;0.50;0.10;;;;;;;26.66;48.76;101207.06;4916429;28;98500;-62